sensor_id;sensor_type;location;lat;lon;timestamp;P1;durP1;ratioP1;P2;durP2;ratioP2
3949;SDS011;53057;50.988;6.314;2022-09-03T00:01:11;18.73;;;4.03;;
3949;SDS011;53057;50.988;6.314;2022-09-03T00:03:41;1.90;;;1.70;;
3949;SDS011;53057;50.988;6.314;2022-09-03T00:06:12;3.73;;;2.00;;
3949;SDS011;53057;50.988;6.314;2022-09-03T00:08:47;7.30;;;1.70;;
3949;SDS011;53057;50.988;6.314;2022-09-03T00:11:21;4.87;;;1.30;;
3949;SDS011;53057;50.988;6.314;2022-09-03T00:16:23;1.83;;;1.50;;
3949;SDS011;53057;50.988;6.314;2022-09-03T00:18:54;8.40;;;1.70;;
3949;SDS011;53057;50.988;6.314;2022-09-03T00:21:36;1.47;;;1.37;;
3949;SDS011;53057;50.988;6.314;2022-09-03T00:24:03;1.97;;;1.60;;
3949;SDS011;53057;50.988;6.314;2022-09-03T00:26:36;7.10;;;1.70;;
3949;SDS011;53057;50.988;6.314;2022-09-03T00:32:00;6.37;;;1.97;;
3949;SDS011;53057;50.988;6.314;2022-09-03T00:34:29;4.73;;;1.70;;
3949;SDS011;53057;50.988;6.314;2022-09-03T00:36:56;3.20;;;2.20;;
3949;SDS011;53057;50.988;6.314;2022-09-03T00:39:24;1.83;;;1.67;;
3949;SDS011;53057;50.988;6.314;2022-09-03T00:44:40;2.57;;;1.80;;
3949;SDS011;53057;50.988;6.314;2022-09-03T00:49:54;2.67;;;2.00;;
3949;SDS011;53057;50.988;6.314;2022-09-03T00:58:09;2.57;;;1.40;;
3949;SDS011;53057;50.988;6.314;2022-09-03T01:00:36;3.43;;;1.63;;
3949;SDS011;53057;50.988;6.314;2022-09-03T01:05:58;2.40;;;1.63;;
3949;SDS011;53057;50.988;6.314;2022-09-03T01:11:18;2.90;;;1.53;;
3949;SDS011;53057;50.988;6.314;2022-09-03T01:16:36;2.43;;;1.53;;
3949;SDS011;53057;50.988;6.314;2022-09-03T01:29:50;8.60;;;2.00;;
3949;SDS011;53057;50.988;6.314;2022-09-03T01:32:24;5.53;;;1.90;;
3949;SDS011;53057;50.988;6.314;2022-09-03T01:37:39;5.80;;;2.50;;
3949;SDS011;53057;50.988;6.314;2022-09-03T01:40:24;2.30;;;1.97;;
3949;SDS011;53057;50.988;6.314;2022-09-03T01:43:37;4.00;;;1.70;;
3949;SDS011;53057;50.988;6.314;2022-09-03T01:45:53;2.90;;;1.80;;
3949;SDS011;53057;50.988;6.314;2022-09-03T01:48:25;6.80;;;3.20;;
3949;SDS011;53057;50.988;6.314;2022-09-03T01:58:42;7.33;;;2.10;;
3949;SDS011;53057;50.988;6.314;2022-09-03T02:01:12;13.43;;;2.37;;
3949;SDS011;53057;50.988;6.314;2022-09-03T02:03:43;6.73;;;2.13;;
3949;SDS011;53057;50.988;6.314;2022-09-03T02:06:11;5.70;;;1.73;;
3949;SDS011;53057;50.988;6.314;2022-09-03T02:08:37;2.00;;;1.87;;
3949;SDS011;53057;50.988;6.314;2022-09-03T02:11:05;2.23;;;2.07;;
3949;SDS011;53057;50.988;6.314;2022-09-03T02:13:38;2.50;;;1.67;;
3949;SDS011;53057;50.988;6.314;2022-09-03T02:16:09;5.23;;;2.30;;
3949;SDS011;53057;50.988;6.314;2022-09-03T02:18:37;4.23;;;1.60;;
3949;SDS011;53057;50.988;6.314;2022-09-03T02:21:07;2.70;;;1.30;;
3949;SDS011;53057;50.988;6.314;2022-09-03T02:23:33;3.77;;;1.97;;
3949;SDS011;53057;50.988;6.314;2022-09-03T02:26:01;4.73;;;1.90;;
3949;SDS011;53057;50.988;6.314;2022-09-03T02:28:28;1.70;;;1.60;;
3949;SDS011;53057;50.988;6.314;2022-09-03T02:30:56;3.83;;;1.73;;
3949;SDS011;53057;50.988;6.314;2022-09-03T02:33:23;1.90;;;1.60;;
3949;SDS011;53057;50.988;6.314;2022-09-03T02:35:49;10.53;;;1.87;;
3949;SDS011;53057;50.988;6.314;2022-09-03T02:38:22;4.27;;;1.63;;
3949;SDS011;53057;50.988;6.314;2022-09-03T02:40:51;3.17;;;2.27;;
3949;SDS011;53057;50.988;6.314;2022-09-03T02:43:26;2.50;;;1.80;;
3949;SDS011;53057;50.988;6.314;2022-09-03T02:45:57;1.80;;;1.70;;
3949;SDS011;53057;50.988;6.314;2022-09-03T02:48:24;1.63;;;1.53;;
3949;SDS011;53057;50.988;6.314;2022-09-03T02:50:51;4.50;;;2.13;;
3949;SDS011;53057;50.988;6.314;2022-09-03T02:53:18;8.23;;;2.23;;
3949;SDS011;53057;50.988;6.314;2022-09-03T02:55:45;2.30;;;1.80;;
3949;SDS011;53057;50.988;6.314;2022-09-03T02:58:13;2.77;;;2.10;;
3949;SDS011;53057;50.988;6.314;2022-09-03T03:00:39;10.10;;;2.30;;
3949;SDS011;53057;50.988;6.314;2022-09-03T03:03:06;4.90;;;2.03;;
3949;SDS011;53057;50.988;6.314;2022-09-03T03:05:43;12.13;;;3.40;;
3949;SDS011;53057;50.988;6.314;2022-09-03T03:08:10;2.93;;;1.90;;
3949;SDS011;53057;50.988;6.314;2022-09-03T03:10:40;3.10;;;2.40;;
3949;SDS011;53057;50.988;6.314;2022-09-03T03:13:09;1.93;;;1.43;;
3949;SDS011;53057;50.988;6.314;2022-09-03T03:15:36;6.13;;;2.10;;
3949;SDS011;53057;50.988;6.314;2022-09-03T03:18:03;2.87;;;1.30;;
3949;SDS011;53057;50.988;6.314;2022-09-03T03:20:29;8.63;;;2.50;;
3949;SDS011;53057;50.988;6.314;2022-09-03T03:22:56;5.43;;;1.67;;
3949;SDS011;53057;50.988;6.314;2022-09-03T03:25:23;4.83;;;2.13;;
3949;SDS011;53057;50.988;6.314;2022-09-03T03:27:49;2.97;;;1.70;;
3949;SDS011;53057;50.988;6.314;2022-09-03T03:30:16;1.60;;;1.40;;
3949;SDS011;53057;50.988;6.314;2022-09-03T03:32:42;3.60;;;2.30;;
3949;SDS011;53057;50.988;6.314;2022-09-03T03:35:10;3.77;;;2.00;;
3949;SDS011;53057;50.988;6.314;2022-09-03T03:37:37;2.60;;;2.07;;
3949;SDS011;53057;50.988;6.314;2022-09-03T03:40:04;2.43;;;1.70;;
3949;SDS011;53057;50.988;6.314;2022-09-03T03:42:31;8.30;;;2.10;;
3949;SDS011;53057;50.988;6.314;2022-09-03T03:44:58;2.80;;;1.70;;
3949;SDS011;53057;50.988;6.314;2022-09-03T03:47:25;1.77;;;1.47;;
3949;SDS011;53057;50.988;6.314;2022-09-03T03:49:51;2.70;;;2.07;;
3949;SDS011;53057;50.988;6.314;2022-09-03T03:52:18;6.40;;;2.80;;
3949;SDS011;53057;50.988;6.314;2022-09-03T03:54:44;4.20;;;2.03;;
3949;SDS011;53057;50.988;6.314;2022-09-03T03:57:11;4.63;;;2.00;;
3949;SDS011;53057;50.988;6.314;2022-09-03T03:59:38;7.43;;;2.27;;
3949;SDS011;53057;50.988;6.314;2022-09-03T04:02:05;7.30;;;2.73;;
3949;SDS011;53057;50.988;6.314;2022-09-03T04:04:31;3.10;;;1.80;;
3949;SDS011;53057;50.988;6.314;2022-09-03T04:06:58;4.57;;;2.83;;
3949;SDS011;53057;50.988;6.314;2022-09-03T04:09:24;9.17;;;2.60;;
3949;SDS011;53057;50.988;6.314;2022-09-03T04:11:51;4.10;;;1.80;;
3949;SDS011;53057;50.988;6.314;2022-09-03T04:14:18;8.90;;;2.40;;
3949;SDS011;53057;50.988;6.314;2022-09-03T04:16:44;2.47;;;2.27;;
3949;SDS011;53057;50.988;6.314;2022-09-03T04:19:12;2.97;;;1.90;;
3949;SDS011;53057;50.988;6.314;2022-09-03T04:21:39;2.83;;;2.17;;
3949;SDS011;53057;50.988;6.314;2022-09-03T04:24:05;4.47;;;2.57;;
3949;SDS011;53057;50.988;6.314;2022-09-03T04:26:32;4.03;;;2.10;;
3949;SDS011;53057;50.988;6.314;2022-09-03T04:28:59;3.50;;;2.00;;
3949;SDS011;53057;50.988;6.314;2022-09-03T04:31:27;3.37;;;1.57;;
3949;SDS011;53057;50.988;6.314;2022-09-03T04:33:54;3.53;;;2.23;;
3949;SDS011;53057;50.988;6.314;2022-09-03T04:36:22;1.53;;;1.43;;
3949;SDS011;53057;50.988;6.314;2022-09-03T04:38:50;3.30;;;2.30;;
3949;SDS011;53057;50.988;6.314;2022-09-03T04:41:19;3.93;;;1.90;;
3949;SDS011;53057;50.988;6.314;2022-09-03T04:43:46;2.27;;;1.97;;
3949;SDS011;53057;50.988;6.314;2022-09-03T04:46:17;1.63;;;1.40;;
3949;SDS011;53057;50.988;6.314;2022-09-03T04:48:46;2.33;;;1.80;;
3949;SDS011;53057;50.988;6.314;2022-09-03T04:51:13;2.80;;;1.90;;
3949;SDS011;53057;50.988;6.314;2022-09-03T04:53:41;3.67;;;1.80;;
3949;SDS011;53057;50.988;6.314;2022-09-03T04:56:16;2.90;;;1.90;;
3949;SDS011;53057;50.988;6.314;2022-09-03T04:58:43;2.57;;;1.80;;
3949;SDS011;53057;50.988;6.314;2022-09-03T05:01:11;1.97;;;1.43;;
3949;SDS011;53057;50.988;6.314;2022-09-03T05:03:38;7.90;;;1.60;;
3949;SDS011;53057;50.988;6.314;2022-09-03T05:06:05;4.90;;;2.67;;
3949;SDS011;53057;50.988;6.314;2022-09-03T05:08:32;8.63;;;2.30;;
3949;SDS011;53057;50.988;6.314;2022-09-03T05:11:03;5.13;;;2.67;;
3949;SDS011;53057;50.988;6.314;2022-09-03T05:13:30;3.83;;;1.80;;
3949;SDS011;53057;50.988;6.314;2022-09-03T05:16:01;5.13;;;1.57;;
3949;SDS011;53057;50.988;6.314;2022-09-03T05:18:28;2.90;;;1.57;;
3949;SDS011;53057;50.988;6.314;2022-09-03T05:20:58;6.93;;;1.80;;
3949;SDS011;53057;50.988;6.314;2022-09-03T05:23:29;12.03;;;2.10;;
3949;SDS011;53057;50.988;6.314;2022-09-03T05:26:03;1.80;;;1.70;;
3949;SDS011;53057;50.988;6.314;2022-09-03T05:28:35;9.67;;;1.93;;
3949;SDS011;53057;50.988;6.314;2022-09-03T05:31:03;2.80;;;1.70;;
3949;SDS011;53057;50.988;6.314;2022-09-03T05:33:33;4.20;;;1.90;;
3949;SDS011;53057;50.988;6.314;2022-09-03T05:36:01;2.17;;;1.87;;
3949;SDS011;53057;50.988;6.314;2022-09-03T05:38:28;6.30;;;2.10;;
3949;SDS011;53057;50.988;6.314;2022-09-03T05:40:59;7.37;;;2.60;;
3949;SDS011;53057;50.988;6.314;2022-09-03T05:43:26;5.60;;;2.00;;
3949;SDS011;53057;50.988;6.314;2022-09-03T05:46:12;3.10;;;1.80;;
3949;SDS011;53057;50.988;6.314;2022-09-03T05:48:39;3.93;;;2.10;;
3949;SDS011;53057;50.988;6.314;2022-09-03T05:51:07;2.40;;;1.97;;
3949;SDS011;53057;50.988;6.314;2022-09-03T05:53:35;4.27;;;1.90;;
3949;SDS011;53057;50.988;6.314;2022-09-03T05:56:06;2.50;;;1.70;;
3949;SDS011;53057;50.988;6.314;2022-09-03T05:58:33;1.50;;;1.40;;
3949;SDS011;53057;50.988;6.314;2022-09-03T06:01:13;7.37;;;2.13;;
3949;SDS011;53057;50.988;6.314;2022-09-03T06:03:41;2.53;;;1.80;;
3949;SDS011;53057;50.988;6.314;2022-09-03T06:06:09;3.83;;;1.50;;
3949;SDS011;53057;50.988;6.314;2022-09-03T06:08:35;2.50;;;1.60;;
3949;SDS011;53057;50.988;6.314;2022-09-03T06:11:05;4.27;;;1.50;;
3949;SDS011;53057;50.988;6.314;2022-09-03T06:13:32;1.57;;;1.43;;
3949;SDS011;53057;50.988;6.314;2022-09-03T06:16:00;3.37;;;1.97;;
3949;SDS011;53057;50.988;6.314;2022-09-03T06:18:27;3.53;;;1.80;;
3949;SDS011;53057;50.988;6.314;2022-09-03T06:20:57;2.23;;;1.30;;
3949;SDS011;53057;50.988;6.314;2022-09-03T06:23:24;8.90;;;2.03;;
3949;SDS011;53057;50.988;6.314;2022-09-03T06:26:04;2.53;;;1.53;;
3949;SDS011;53057;50.988;6.314;2022-09-03T06:28:35;3.23;;;1.33;;
3949;SDS011;53057;50.988;6.314;2022-09-03T06:31:06;5.40;;;1.30;;
3949;SDS011;53057;50.988;6.314;2022-09-03T06:33:37;4.00;;;1.33;;
3949;SDS011;53057;50.988;6.314;2022-09-03T06:36:08;1.60;;;1.50;;
3949;SDS011;53057;50.988;6.314;2022-09-03T06:38:36;1.53;;;1.40;;
3949;SDS011;53057;50.988;6.314;2022-09-03T06:41:07;9.20;;;1.60;;
3949;SDS011;53057;50.988;6.314;2022-09-03T06:43:38;1.57;;;1.47;;
3949;SDS011;53057;50.988;6.314;2022-09-03T06:46:07;1.73;;;1.10;;
3949;SDS011;53057;50.988;6.314;2022-09-03T06:48:34;4.93;;;1.93;;
3949;SDS011;53057;50.988;6.314;2022-09-03T06:51:02;2.03;;;1.27;;
3949;SDS011;53057;50.988;6.314;2022-09-03T06:53:30;1.23;;;1.13;;
3949;SDS011;53057;50.988;6.314;2022-09-03T06:55:58;5.10;;;1.13;;
3949;SDS011;53057;50.988;6.314;2022-09-03T06:58:29;1.47;;;1.37;;
3949;SDS011;53057;50.988;6.314;2022-09-03T07:01:00;1.77;;;1.17;;
3949;SDS011;53057;50.988;6.314;2022-09-03T07:03:27;1.90;;;1.20;;
3949;SDS011;53057;50.988;6.314;2022-09-03T07:05:57;4.93;;;2.00;;
3949;SDS011;53057;50.988;6.314;2022-09-03T07:08:25;4.87;;;1.87;;
3949;SDS011;53057;50.988;6.314;2022-09-03T07:10:52;1.87;;;1.33;;
3949;SDS011;53057;50.988;6.314;2022-09-03T07:13:19;1.17;;;1.07;;
3949;SDS011;53057;50.988;6.314;2022-09-03T07:15:46;4.23;;;1.50;;
3949;SDS011;53057;50.988;6.314;2022-09-03T07:18:13;1.40;;;1.30;;
3949;SDS011;53057;50.988;6.314;2022-09-03T07:20:39;3.33;;;1.23;;
3949;SDS011;53057;50.988;6.314;2022-09-03T07:23:06;2.10;;;1.10;;
3949;SDS011;53057;50.988;6.314;2022-09-03T07:25:34;2.57;;;1.40;;
3949;SDS011;53057;50.988;6.314;2022-09-03T07:28:01;1.87;;;1.50;;
3949;SDS011;53057;50.988;6.314;2022-09-03T07:30:27;6.57;;;1.70;;
3949;SDS011;53057;50.988;6.314;2022-09-03T07:32:54;1.87;;;1.10;;
3949;SDS011;53057;50.988;6.314;2022-09-03T07:35:21;3.57;;;1.23;;
3949;SDS011;53057;50.988;6.314;2022-09-03T07:37:51;3.63;;;1.40;;
3949;SDS011;53057;50.988;6.314;2022-09-03T07:40:18;2.73;;;1.33;;
3949;SDS011;53057;50.988;6.314;2022-09-03T07:42:45;3.83;;;1.50;;
3949;SDS011;53057;50.988;6.314;2022-09-03T07:45:19;1.33;;;1.07;;
3949;SDS011;53057;50.988;6.314;2022-09-03T07:47:46;7.43;;;1.77;;
3949;SDS011;53057;50.988;6.314;2022-09-03T07:50:15;3.20;;;0.90;;
3949;SDS011;53057;50.988;6.314;2022-09-03T07:52:41;4.43;;;1.53;;
3949;SDS011;53057;50.988;6.314;2022-09-03T07:55:08;2.57;;;1.40;;
3949;SDS011;53057;50.988;6.314;2022-09-03T07:57:36;4.43;;;1.10;;
3949;SDS011;53057;50.988;6.314;2022-09-03T08:00:03;2.60;;;1.00;;
3949;SDS011;53057;50.988;6.314;2022-09-03T08:02:37;4.93;;;1.30;;
3949;SDS011;53057;50.988;6.314;2022-09-03T08:05:09;2.20;;;1.10;;
3949;SDS011;53057;50.988;6.314;2022-09-03T08:07:36;3.90;;;1.10;;
3949;SDS011;53057;50.988;6.314;2022-09-03T08:10:04;1.87;;;1.20;;
3949;SDS011;53057;50.988;6.314;2022-09-03T08:12:31;1.70;;;1.17;;
3949;SDS011;53057;50.988;6.314;2022-09-03T08:14:58;6.33;;;1.67;;
3949;SDS011;53057;50.988;6.314;2022-09-03T08:17:24;1.37;;;1.17;;
3949;SDS011;53057;50.988;6.314;2022-09-03T08:19:51;2.40;;;1.03;;
3949;SDS011;53057;50.988;6.314;2022-09-03T08:22:18;7.20;;;1.10;;
3949;SDS011;53057;50.988;6.314;2022-09-03T08:24:48;1.67;;;1.30;;
3949;SDS011;53057;50.988;6.314;2022-09-03T08:27:15;1.67;;;1.23;;
3949;SDS011;53057;50.988;6.314;2022-09-03T08:29:42;3.03;;;1.30;;
3949;SDS011;53057;50.988;6.314;2022-09-03T08:32:12;1.83;;;0.90;;
3949;SDS011;53057;50.988;6.314;2022-09-03T08:34:39;1.23;;;1.13;;
3949;SDS011;53057;50.988;6.314;2022-09-03T08:37:06;1.43;;;1.33;;
3949;SDS011;53057;50.988;6.314;2022-09-03T08:39:35;1.63;;;1.00;;
3949;SDS011;53057;50.988;6.314;2022-09-03T08:42:09;1.93;;;1.80;;
3949;SDS011;53057;50.988;6.314;2022-09-03T08:52:24;4.43;;;1.50;;
3949;SDS011;53057;50.988;6.314;2022-09-03T08:54:53;1.60;;;1.10;;
3949;SDS011;53057;50.988;6.314;2022-09-03T08:57:21;2.50;;;1.60;;
3949;SDS011;53057;50.988;6.314;2022-09-03T08:59:48;3.60;;;1.50;;
3949;SDS011;53057;50.988;6.314;2022-09-03T09:02:23;8.33;;;1.63;;
3949;SDS011;53057;50.988;6.314;2022-09-03T09:13:13;1.27;;;1.20;;
3949;SDS011;53057;50.988;6.314;2022-09-03T09:15:55;1.40;;;1.27;;
3949;SDS011;53057;50.988;6.314;2022-09-03T09:18:37;2.13;;;1.50;;
3949;SDS011;53057;50.988;6.314;2022-09-03T09:21:10;1.50;;;1.43;;
3949;SDS011;53057;50.988;6.314;2022-09-03T09:23:46;5.43;;;1.80;;
3949;SDS011;53057;50.988;6.314;2022-09-03T09:26:17;2.10;;;1.10;;
3949;SDS011;53057;50.988;6.314;2022-09-03T09:28:45;1.27;;;1.17;;
3949;SDS011;53057;50.988;6.314;2022-09-03T09:31:14;1.77;;;1.50;;
3949;SDS011;53057;50.988;6.314;2022-09-03T09:33:44;4.33;;;1.30;;
3949;SDS011;53057;50.988;6.314;2022-09-03T09:36:12;3.53;;;1.50;;
3949;SDS011;53057;50.988;6.314;2022-09-03T09:38:42;2.57;;;1.30;;
3949;SDS011;53057;50.988;6.314;2022-09-03T09:43:36;5.73;;;1.70;;
3949;SDS011;53057;50.988;6.314;2022-09-03T09:46:08;4.07;;;1.37;;
3949;SDS011;53057;50.988;6.314;2022-09-03T09:48:39;8.10;;;2.10;;
3949;SDS011;53057;50.988;6.314;2022-09-03T09:51:12;8.43;;;1.57;;
3949;SDS011;53057;50.988;6.314;2022-09-03T09:53:40;2.97;;;1.73;;
3949;SDS011;53057;50.988;6.314;2022-09-03T09:56:06;4.73;;;1.60;;
3949;SDS011;53057;50.988;6.314;2022-09-03T09:58:33;7.87;;;1.70;;
3949;SDS011;53057;50.988;6.314;2022-09-03T10:01:02;6.27;;;2.07;;
3949;SDS011;53057;50.988;6.314;2022-09-03T10:03:33;6.70;;;2.00;;
3949;SDS011;53057;50.988;6.314;2022-09-03T10:06:04;1.73;;;1.60;;
3949;SDS011;53057;50.988;6.314;2022-09-03T10:09:14;4.77;;;2.40;;
3949;SDS011;53057;50.988;6.314;2022-09-03T10:11:40;3.10;;;1.97;;
3949;SDS011;53057;50.988;6.314;2022-09-03T10:14:16;2.10;;;1.67;;
3949;SDS011;53057;50.988;6.314;2022-09-03T10:16:46;4.50;;;2.50;;
3949;SDS011;53057;50.988;6.314;2022-09-03T10:19:18;3.20;;;1.63;;
3949;SDS011;53057;50.988;6.314;2022-09-03T10:26:42;11.07;;;2.83;;
3949;SDS011;53057;50.988;6.314;2022-09-03T10:29:14;1.90;;;1.80;;
3949;SDS011;53057;50.988;6.314;2022-09-03T10:34:31;4.27;;;1.77;;
3949;SDS011;53057;50.988;6.314;2022-09-03T10:44:51;1.50;;;1.40;;
3949;SDS011;53057;50.988;6.314;2022-09-03T11:00:07;7.40;;;2.40;;
3949;SDS011;53057;50.988;6.314;2022-09-03T11:05:17;2.43;;;1.70;;
3949;SDS011;53057;50.988;6.314;2022-09-03T11:07:50;8.87;;;2.73;;
3949;SDS011;53057;50.988;6.314;2022-09-03T11:12:47;6.77;;;1.70;;
3949;SDS011;53057;50.988;6.314;2022-09-03T11:17:45;3.43;;;2.00;;
3949;SDS011;53057;50.988;6.314;2022-09-03T11:20:15;3.73;;;2.10;;
3949;SDS011;53057;50.988;6.314;2022-09-03T11:22:44;3.80;;;1.73;;
3949;SDS011;53057;50.988;6.314;2022-09-03T11:25:12;4.10;;;1.87;;
3949;SDS011;53057;50.988;6.314;2022-09-03T11:30:11;8.07;;;1.70;;
3949;SDS011;53057;50.988;6.314;2022-09-03T11:35:27;3.03;;;1.53;;
3949;SDS011;53057;50.988;6.314;2022-09-03T11:37:57;5.60;;;1.90;;
3949;SDS011;53057;50.988;6.314;2022-09-03T11:48:40;4.10;;;1.70;;
3949;SDS011;53057;50.988;6.314;2022-09-03T11:56:21;5.00;;;1.83;;
3949;SDS011;53057;50.988;6.314;2022-09-03T11:58:59;2.60;;;1.53;;
3949;SDS011;53057;50.988;6.314;2022-09-03T12:01:33;5.83;;;1.40;;
3949;SDS011;53057;50.988;6.314;2022-09-03T12:04:03;3.23;;;1.80;;
3949;SDS011;53057;50.988;6.314;2022-09-03T12:30:18;1.63;;;1.53;;
3949;SDS011;53057;50.988;6.314;2022-09-03T14:09:38;4.50;;;1.77;;
3949;SDS011;53057;50.988;6.314;2022-09-03T14:12:16;2.53;;;2.33;;
3949;SDS011;53057;50.988;6.314;2022-09-03T14:27:36;2.40;;;1.80;;
3949;SDS011;53057;50.988;6.314;2022-09-03T15:15:11;2.20;;;2.10;;
3949;SDS011;53057;50.988;6.314;2022-09-03T15:48:00;4.50;;;2.90;;
3949;SDS011;53057;50.988;6.314;2022-09-03T15:58:46;2.43;;;2.33;;
3949;SDS011;53057;50.988;6.314;2022-09-03T16:10:22;8.07;;;2.53;;
3949;SDS011;53057;50.988;6.314;2022-09-03T16:28:17;3.30;;;2.20;;
3949;SDS011;53057;50.988;6.314;2022-09-03T16:59:01;3.30;;;3.00;;
3949;SDS011;53057;50.988;6.314;2022-09-03T19:05:09;8.50;;;4.07;;
3949;SDS011;53057;50.988;6.314;2022-09-03T19:17:10;3.13;;;2.93;;
3949;SDS011;53057;50.988;6.314;2022-09-03T19:42:57;6.30;;;3.37;;
3949;SDS011;53057;50.988;6.314;2022-09-03T19:54:54;8.43;;;4.37;;
3949;SDS011;53057;50.988;6.314;2022-09-03T20:09:26;6.57;;;3.27;;
3949;SDS011;53057;50.988;6.314;2022-09-03T20:17:48;6.87;;;3.07;;
3949;SDS011;53057;50.988;6.314;2022-09-03T20:58:37;5.43;;;4.50;;
3949;SDS011;53057;50.988;6.314;2022-09-03T21:01:15;6.80;;;5.47;;
3949;SDS011;53057;50.988;6.314;2022-09-03T21:07:26;13.40;;;6.67;;
3949;SDS011;53057;50.988;6.314;2022-09-03T21:36:08;13.80;;;6.60;;
3949;SDS011;53057;50.988;6.314;2022-09-03T22:19:50;10.33;;;7.63;;
3949;SDS011;53057;50.988;6.314;2022-09-03T23:17:30;11.33;;;10.07;;
3949;SDS011;53057;50.988;6.314;2022-09-03T23:21:42;12.23;;;10.87;;
3949;SDS011;53057;50.988;6.314;2022-09-03T23:32:45;17.63;;;11.40;;
3949;SDS011;53057;50.988;6.314;2022-09-03T23:35:14;14.67;;;11.63;;
